createdAt,value
2023-03-14T00:00:01.031Z,98463.91
2023-03-14T00:02:29.025Z,98450.97
2023-03-14T00:04:58.307Z,98448.47
2023-03-14T00:07:26.407Z,98440.13
2023-03-14T00:09:54.267Z,98430.91
2023-03-14T00:12:22.072Z,98408.78
2023-03-14T00:14:49.795Z,98398.63
2023-03-14T00:17:17.504Z,98389.47
2023-03-14T00:19:45.210Z,98386.13
2023-03-14T00:22:14.291Z,98417.41
2023-03-14T00:24:42.058Z,98409.50
2023-03-14T00:27:09.831Z,98391.00
2023-03-14T00:29:37.615Z,98396.44
2023-03-14T00:32:05.782Z,98405.00
2023-03-14T00:34:34.971Z,98403.56
2023-03-14T00:37:02.695Z,98411.63
2023-03-14T00:39:31.848Z,98425.66
2023-03-14T00:41:59.612Z,98409.81
2023-03-14T00:44:27.478Z,98434.28
2023-03-14T00:46:55.331Z,98433.34
2023-03-14T00:49:23.167Z,98435.13
2023-03-14T00:51:53.381Z,98443.34
2023-03-14T00:54:21.871Z,98443.13
2023-03-14T00:56:51.057Z,98438.34
2023-03-14T00:59:18.928Z,98426.28
2023-03-14T01:01:46.761Z,98428.38
2023-03-14T01:04:14.627Z,98412.41
2023-03-14T01:06:42.571Z,98389.78
2023-03-14T01:09:12.261Z,98389.72
2023-03-14T01:11:40.040Z,98374.00
2023-03-14T01:14:09.311Z,98361.84
2023-03-14T01:16:37.487Z,98376.28
2023-03-14T01:19:05.649Z,98370.06
2023-03-14T01:21:35.065Z,98372.84
2023-03-14T01:24:04.538Z,98364.03
2023-03-14T01:26:34.669Z,98361.78
2023-03-14T01:29:03.218Z,98356.97
2023-03-14T01:31:33.021Z,98362.97
2023-03-14T01:34:00.808Z,98359.53
2023-03-14T01:36:30.490Z,98349.25
2023-03-14T01:39:01.062Z,98349.63
2023-03-14T01:41:29.214Z,98358.91
2023-03-14T01:43:59.542Z,98382.06
2023-03-14T01:46:34.165Z,98393.91
2023-03-14T01:49:08.796Z,98415.22
2023-03-14T01:51:44.471Z,98374.44
2023-03-14T01:54:21.806Z,98343.31
2023-03-14T01:56:54.573Z,98338.81
2023-03-14T01:59:23.109Z,98342.44
2023-03-14T02:01:53.806Z,98358.66
2023-03-14T02:04:22.317Z,98350.13
2023-03-14T02:07:00.668Z,98355.97
2023-03-14T02:09:33.400Z,98351.66
2023-03-14T02:12:02.306Z,98355.41
2023-03-14T02:14:48.881Z,98364.25
2023-03-14T02:17:50.358Z,98371.03
2023-03-14T02:20:35.304Z,98372.50
2023-03-14T02:23:03.345Z,98381.56
2023-03-14T02:25:40.811Z,98387.25
2023-03-14T02:28:10.458Z,98377.63
2023-03-14T02:30:39.953Z,98381.47
2023-03-14T02:33:10.323Z,98365.09
2023-03-14T02:35:42.057Z,98355.59
2023-03-14T02:38:19.097Z,98349.91
2023-03-14T02:40:50.155Z,98347.09
2023-03-14T02:43:20.101Z,98356.44
2023-03-14T02:45:54.540Z,98347.59
2023-03-14T02:48:27.818Z,98339.06
2023-03-14T02:50:58.521Z,98345.66
2023-03-14T02:53:30.068Z,98344.97
2023-03-14T02:56:01.050Z,98339.88
2023-03-14T02:58:31.571Z,98329.38
2023-03-14T03:01:10.168Z,98333.91
2023-03-14T03:03:39.486Z,98345.72
2023-03-14T03:06:08.136Z,98337.22
2023-03-14T03:08:35.927Z,98327.84
2023-03-14T03:11:04.481Z,98328.28
2023-03-14T03:13:36.194Z,98338.47
2023-03-14T03:16:06.981Z,98334.84
2023-03-14T03:18:36.281Z,98332.66
2023-03-14T03:21:06.691Z,98335.41
2023-03-14T03:23:34.478Z,98328.69
2023-03-14T03:26:03.285Z,98330.63
2023-03-14T03:28:31.201Z,98317.00
2023-03-14T03:31:09.301Z,98316.69
2023-03-14T03:33:38.403Z,98319.75
2023-03-14T03:36:07.139Z,98313.41
2023-03-14T03:38:37.979Z,98303.94
2023-03-14T03:41:08.145Z,98303.25
2023-03-14T03:43:36.730Z,98303.97
2023-03-14T03:46:09.117Z,98308.22
2023-03-14T03:48:37.607Z,98309.31
2023-03-14T03:51:07.506Z,98333.31
2023-03-14T03:53:36.809Z,98347.63
2023-03-14T03:56:10.965Z,98365.53
2023-03-14T03:58:39.881Z,98353.50
2023-03-14T04:01:11.541Z,98349.16
2023-03-14T04:03:40.267Z,98344.94
2023-03-14T04:06:11.336Z,98339.59
2023-03-14T04:08:42.325Z,98328.25
2023-03-14T04:11:13.418Z,98335.50
2023-03-14T04:13:53.689Z,98333.78
2023-03-14T04:16:24.846Z,98338.63
2023-03-14T04:18:56.434Z,98340.56
2023-03-14T04:21:25.410Z,98338.00
2023-03-14T04:23:57.342Z,98341.56
2023-03-14T04:26:26.667Z,98329.56
2023-03-14T04:28:55.028Z,98331.19
2023-03-14T04:31:25.443Z,98328.78
2023-03-14T04:33:53.550Z,98333.97
2023-03-14T04:36:28.910Z,98325.03
2023-03-14T04:38:58.512Z,98328.06
2023-03-14T04:41:27.048Z,98322.59
2023-03-14T04:43:54.881Z,98313.50
2023-03-14T04:46:24.840Z,98321.09
2023-03-14T04:48:52.660Z,98321.41
2023-03-14T04:51:20.665Z,98310.38
2023-03-14T04:53:48.559Z,98300.84
2023-03-14T04:56:16.707Z,98311.28
2023-03-14T04:58:45.730Z,98303.09
2023-03-14T05:01:16.759Z,98301.31
2023-03-14T05:04:11.843Z,98298.28
2023-03-14T05:06:58.122Z,98292.25
2023-03-14T05:09:37.336Z,98287.50
2023-03-14T05:12:23.944Z,98285.16
2023-03-14T05:15:20.589Z,98277.44
2023-03-14T05:18:06.876Z,98270.06
2023-03-14T05:20:57.861Z,98284.31
2023-03-14T05:23:49.339Z,98289.75
2023-03-14T05:26:35.602Z,98282.34
2023-03-14T05:29:32.677Z,98281.25
2023-03-14T05:32:38.857Z,98273.50
2023-03-14T05:35:18.473Z,98271.59
2023-03-14T05:38:06.052Z,98272.56
2023-03-14T05:40:46.390Z,98284.63
2023-03-14T05:43:21.415Z,98278.53
2023-03-14T05:46:09.330Z,98271.84
2023-03-14T05:48:57.465Z,98261.97
2023-03-14T05:51:36.902Z,98278.84
2023-03-14T05:54:44.647Z,98277.41
2023-03-14T05:57:50.758Z,98266.38
2023-03-14T06:00:28.340Z,98268.59
2023-03-14T06:03:08.497Z,98276.81
2023-03-14T06:05:41.757Z,98262.59
2023-03-14T06:08:09.579Z,98256.88
2023-03-14T06:10:39.151Z,98265.63
2023-03-14T06:13:07.039Z,98257.72
2023-03-14T06:15:36.832Z,98261.38
2023-03-14T06:18:05.404Z,98262.63
2023-03-14T06:20:34.252Z,98264.34
2023-03-14T06:23:02.419Z,98261.13
2023-03-14T06:25:32.104Z,98254.81
2023-03-14T06:28:01.288Z,98263.66
2023-03-14T06:30:29.857Z,98270.88
2023-03-14T06:32:58.779Z,98268.13
2023-03-14T06:35:28.387Z,98279.69
2023-03-14T06:37:56.383Z,98275.66
2023-03-14T06:40:24.321Z,98273.44
2023-03-14T06:43:07.366Z,98278.31
2023-03-14T06:45:37.494Z,98271.16
2023-03-14T06:48:05.950Z,98272.09
2023-03-14T06:50:46.551Z,98268.41
2023-03-14T06:53:14.845Z,98276.03
2023-03-14T06:55:46.660Z,98277.59
2023-03-14T06:58:17.849Z,98279.34
2023-03-14T07:00:47.664Z,98284.59
2023-03-14T07:03:22.099Z,98283.94
2023-03-14T07:05:52.791Z,98283.00
2023-03-14T07:08:20.778Z,98288.97
2023-03-14T07:10:48.937Z,98291.25
2023-03-14T07:13:19.990Z,98291.91
2023-03-14T07:15:56.759Z,98298.25
2023-03-14T07:18:25.140Z,98284.81
2023-03-14T07:20:53.072Z,98289.03
2023-03-14T07:23:21.288Z,98279.34
2023-03-14T07:25:51.725Z,98283.38
2023-03-14T07:28:24.058Z,98297.03
2023-03-14T07:30:58.245Z,98295.41
2023-03-14T07:33:31.468Z,98297.31
2023-03-14T07:35:59.385Z,98304.50
2023-03-14T07:38:27.760Z,98305.88
2023-03-14T07:41:10.759Z,98304.75
2023-03-14T07:43:46.220Z,98310.09
2023-03-14T07:46:14.091Z,98306.44
2023-03-14T07:48:42.037Z,98310.03
2023-03-14T07:51:09.976Z,98323.44
2023-03-14T07:53:38.007Z,98312.94
2023-03-14T07:56:06.421Z,98310.09
2023-03-14T07:58:34.909Z,98313.44
2023-03-14T08:01:04.525Z,98312.72
2023-03-14T08:03:32.946Z,98318.13
2023-03-14T08:06:01.149Z,98311.38
2023-03-14T08:08:29.031Z,98309.94
2023-03-14T08:10:57.090Z,98308.69
2023-03-14T08:13:26.606Z,98305.22
2023-03-14T08:15:54.475Z,98311.75
2023-03-14T08:18:23.647Z,98318.06
2023-03-14T08:20:51.524Z,98314.19
2023-03-14T08:23:19.434Z,98308.78
2023-03-14T08:25:47.500Z,98311.16
2023-03-14T08:28:15.845Z,98306.41
2023-03-14T08:30:46.829Z,98304.69
2023-03-14T08:33:16.645Z,98302.66
2023-03-14T08:35:46.233Z,98301.78
2023-03-14T08:38:14.169Z,98306.34
2023-03-14T08:40:42.079Z,98299.88
2023-03-14T08:43:09.869Z,98307.63
2023-03-14T08:45:37.825Z,98308.09
2023-03-14T08:48:06.408Z,98304.97
2023-03-14T08:50:34.261Z,98303.16
2023-03-14T08:53:03.734Z,98307.63
2023-03-14T08:55:31.654Z,98314.03
2023-03-14T08:57:59.494Z,98302.88
2023-03-14T09:00:27.859Z,98308.44
2023-03-14T09:02:55.679Z,98311.09
2023-03-14T09:05:23.561Z,98314.00
2023-03-14T09:07:51.469Z,98311.88
2023-03-14T09:10:20.671Z,98314.63
2023-03-14T09:12:48.536Z,98302.31
2023-03-14T09:15:16.374Z,98306.00
2023-03-14T09:17:44.916Z,98315.72
2023-03-14T09:20:14.934Z,98304.75
2023-03-14T09:22:42.799Z,98314.25
2023-03-14T09:25:11.692Z,98311.53
2023-03-14T09:27:40.804Z,98320.78
2023-03-14T09:30:10.043Z,98325.84
2023-03-14T09:32:37.855Z,98317.16
2023-03-14T09:35:06.239Z,98315.19
2023-03-14T09:37:34.049Z,98315.75
2023-03-14T09:40:01.870Z,98316.06
2023-03-14T09:42:29.963Z,98310.53
2023-03-14T09:45:03.612Z,98318.44
2023-03-14T09:47:31.784Z,98309.38
2023-03-14T09:50:00.762Z,98305.81
2023-03-14T09:52:33.257Z,98310.81
2023-03-14T09:55:04.698Z,98306.28
2023-03-14T09:57:35.746Z,98304.69
2023-03-14T10:00:15.153Z,98309.13
2023-03-14T10:02:47.470Z,98316.63
2023-03-14T10:05:18.529Z,98314.41
2023-03-14T10:07:46.806Z,98308.44
2023-03-14T10:10:19.497Z,98305.38
2023-03-14T10:12:48.950Z,98312.91
2023-03-14T10:15:33.401Z,98294.44
2023-03-14T10:18:03.058Z,98296.56
2023-03-14T10:20:34.994Z,98297.44
2023-03-14T10:23:05.543Z,98302.47
2023-03-14T10:25:35.203Z,98294.72
2023-03-14T10:28:05.239Z,98296.50
2023-03-14T10:30:46.183Z,98288.59
2023-03-14T10:33:23.306Z,98300.28
2023-03-14T10:35:57.865Z,98314.28
2023-03-14T10:38:29.031Z,98311.22
2023-03-14T10:40:59.514Z,98315.59
2023-03-14T10:43:32.710Z,98307.53
2023-03-14T10:46:07.949Z,98309.47
2023-03-14T10:48:38.376Z,98317.28
2023-03-14T10:51:09.649Z,98304.16
2023-03-14T10:53:45.808Z,98299.41
2023-03-14T10:56:15.872Z,98313.22
2023-03-14T10:58:45.615Z,98311.81
2023-03-14T11:01:40.080Z,98300.53
2023-03-14T11:04:22.308Z,98305.06
2023-03-14T11:06:59.232Z,98301.25
2023-03-14T11:09:34.304Z,98308.00
2023-03-14T11:12:18.438Z,98305.47
2023-03-14T11:14:53.963Z,98303.50
2023-03-14T11:17:34.263Z,98316.25
2023-03-14T11:20:25.839Z,98309.06
2023-03-14T11:23:00.557Z,98355.97
2023-03-14T11:25:39.246Z,98412.13
2023-03-14T11:28:16.431Z,98431.31
2023-03-14T11:30:56.765Z,98448.22
2023-03-14T11:33:30.679Z,98473.03
2023-03-14T11:36:07.543Z,98481.63
2023-03-14T11:38:40.300Z,98482.38
2023-03-14T11:41:20.233Z,98511.50
2023-03-14T11:43:51.686Z,98507.47
2023-03-14T11:46:27.535Z,98524.63
2023-03-14T11:49:05.704Z,98537.47
2023-03-14T11:51:42.730Z,98545.59
2023-03-14T11:54:18.340Z,98557.41
2023-03-14T11:56:52.717Z,98578.50
2023-03-14T11:59:26.967Z,98580.25
2023-03-14T12:02:06.799Z,98600.81
2023-03-14T12:04:48.161Z,98624.34
2023-03-14T12:07:25.397Z,98652.53
2023-03-14T12:09:59.574Z,98661.34
2023-03-14T12:12:32.214Z,98690.50
2023-03-14T12:15:02.589Z,98692.16
2023-03-14T12:17:38.529Z,98704.47
2023-03-14T12:20:19.720Z,98729.81
2023-03-14T12:22:50.143Z,98749.09
2023-03-14T12:25:21.482Z,98754.00
2023-03-14T12:28:18.186Z,98771.78
2023-03-14T12:30:46.836Z,98784.97
2023-03-14T12:33:32.161Z,98800.28
2023-03-14T12:36:06.933Z,98823.47
2023-03-14T12:38:53.897Z,98810.19
2023-03-14T12:41:26.376Z,98825.69
2023-03-14T12:43:55.164Z,98838.81
2023-03-14T12:46:27.264Z,98847.09
2023-03-14T12:49:08.370Z,98880.72
2023-03-14T12:51:40.975Z,98867.69
2023-03-14T12:54:34.049Z,98845.41
2023-03-14T12:57:16.490Z,98868.94
2023-03-14T12:59:54.218Z,98879.56
2023-03-14T13:02:26.457Z,98881.59
2023-03-14T13:05:03.468Z,98889.09
2023-03-14T13:07:35.632Z,98914.16
2023-03-14T13:10:20.127Z,98929.66
2023-03-14T13:12:52.269Z,98954.75
2023-03-14T13:15:26.276Z,98950.47
2023-03-14T13:17:57.729Z,98945.56
2023-03-14T13:20:31.383Z,98966.09
2023-03-14T13:23:00.680Z,98969.13
2023-03-14T13:25:34.937Z,98963.22
2023-03-14T13:28:04.062Z,98987.56
2023-03-14T13:30:41.144Z,98994.84
2023-03-14T13:33:13.615Z,98981.56
2023-03-14T13:35:44.764Z,99008.91
2023-03-14T13:38:21.902Z,99024.97
2023-03-14T13:40:52.194Z,99029.13
2023-03-14T13:43:23.321Z,99028.72
2023-03-14T13:45:58.207Z,99041.03
2023-03-14T13:48:30.167Z,99052.94
2023-03-14T13:51:02.893Z,99043.59
2023-03-14T13:53:33.159Z,99051.56
2023-03-14T13:56:04.454Z,99054.97
2023-03-14T13:58:34.289Z,99067.31
2023-03-14T14:01:06.328Z,99078.72
2023-03-14T14:03:39.079Z,99067.38
2023-03-14T14:06:13.166Z,99072.09
2023-03-14T14:08:44.684Z,99082.69
2023-03-14T14:11:26.042Z,99086.25
2023-03-14T14:13:57.048Z,99108.16
2023-03-14T14:16:27.846Z,99124.41
2023-03-14T14:18:58.086Z,99128.78
2023-03-14T14:21:26.862Z,99128.69
2023-03-14T14:24:47.056Z,99136.94
2023-03-14T14:27:17.767Z,99152.13
2023-03-14T14:29:47.395Z,99174.66
2023-03-14T14:32:16.927Z,99189.78
2023-03-14T14:34:50.523Z,99194.63
2023-03-14T14:37:21.900Z,99211.38
2023-03-14T14:39:53.158Z,99215.22
2023-03-14T14:42:24.233Z,99223.34
2023-03-14T14:44:53.666Z,99235.81
2023-03-14T14:47:24.763Z,99256.91
2023-03-14T14:49:54.615Z,99259.94
2023-03-14T14:52:28.923Z,99278.25
2023-03-14T14:55:03.645Z,99275.91
2023-03-14T14:57:37.445Z,99272.88
2023-03-14T15:00:13.102Z,99282.66
2023-03-14T15:02:46.047Z,99286.59
2023-03-14T15:05:15.186Z,99300.81
2023-03-14T15:07:44.144Z,99306.28
2023-03-14T15:10:15.973Z,99307.63
2023-03-14T15:12:43.872Z,99332.75
2023-03-14T15:15:13.383Z,99341.53
2023-03-14T15:17:41.530Z,99331.47
2023-03-14T15:20:14.607Z,99338.78
2023-03-14T15:22:42.585Z,99352.91
2023-03-14T15:25:31.476Z,99358.72
2023-03-14T15:28:01.295Z,99364.91
2023-03-14T15:30:29.363Z,99365.06
2023-03-14T15:32:57.227Z,99371.06
2023-03-14T15:35:25.162Z,99358.00
2023-03-14T15:37:53.020Z,99371.91
2023-03-14T15:40:21.702Z,99379.81
2023-03-14T15:42:49.554Z,99380.22
2023-03-14T15:45:18.746Z,99388.34
2023-03-14T15:47:46.790Z,99402.09
2023-03-14T15:50:14.960Z,99409.75
2023-03-14T15:52:42.889Z,99411.84
2023-03-14T15:55:12.057Z,99416.44
2023-03-14T15:57:40.009Z,99421.13
2023-03-14T16:00:12.144Z,99429.03
2023-03-14T16:02:42.351Z,99438.28
2023-03-14T16:05:12.245Z,99446.28
2023-03-14T16:07:40.631Z,99460.75
2023-03-14T16:10:12.396Z,99464.22
2023-03-14T16:12:40.686Z,99463.31
2023-03-14T16:15:10.695Z,99463.94
2023-03-14T16:17:41.187Z,99477.50
2023-03-14T16:20:12.004Z,99472.97
2023-03-14T16:22:40.103Z,99495.56
2023-03-14T16:25:09.836Z,99492.81
2023-03-14T16:27:37.832Z,99505.84
2023-03-14T16:30:07.014Z,99517.00
2023-03-14T16:32:35.914Z,99515.03
2023-03-14T16:35:04.395Z,99516.00
2023-03-14T16:37:33.556Z,99519.44
2023-03-14T16:43:14.542Z,99542.03
2023-03-14T16:45:38.763Z,99541.25
2023-03-14T16:48:07.356Z,99566.94
2023-03-14T16:50:35.242Z,99562.50
2023-03-14T16:53:05.212Z,99574.84
2023-03-14T16:55:34.249Z,99580.91
2023-03-14T16:58:02.591Z,99588.56
2023-03-14T17:00:30.463Z,99588.81
2023-03-14T17:02:58.265Z,99595.28
2023-03-14T17:05:26.723Z,99604.03
2023-03-14T17:07:54.651Z,99621.19
2023-03-14T17:10:24.660Z,99626.34
2023-03-14T17:12:52.470Z,99622.88
2023-03-14T17:15:20.266Z,99635.50
2023-03-14T17:17:48.738Z,99642.66
2023-03-14T17:20:17.407Z,99658.34
2023-03-14T17:22:45.190Z,99667.75
2023-03-14T17:25:13.039Z,99669.44
2023-03-14T17:27:43.912Z,99680.25
2023-03-14T17:30:13.908Z,99691.72
2023-03-14T17:32:41.819Z,99701.06
2023-03-14T17:35:09.598Z,99706.81
2023-03-14T17:37:37.334Z,99713.38
2023-03-14T17:40:06.158Z,99727.94
2023-03-14T17:42:34.139Z,99712.22
2023-03-14T17:45:03.341Z,99735.75
2023-03-14T17:47:31.085Z,99745.63
2023-03-14T17:49:58.916Z,99747.50
2023-03-14T17:52:26.633Z,99755.06
2023-03-14T17:54:54.621Z,99772.69
2023-03-14T17:57:25.461Z,99766.34
2023-03-14T17:59:54.076Z,99775.88
2023-03-14T18:02:24.528Z,99777.91
2023-03-14T18:04:53.912Z,99784.66
2023-03-14T18:07:22.677Z,99793.28
2023-03-14T18:09:51.444Z,99802.44
2023-03-14T18:12:19.502Z,99803.94
2023-03-14T18:14:47.398Z,99803.91
2023-03-14T18:17:15.403Z,99815.59
2023-03-14T18:19:44.631Z,99827.81
2023-03-14T18:22:18.350Z,99829.53
2023-03-14T18:24:50.201Z,99835.47
2023-03-14T18:27:30.683Z,99844.66
2023-03-14T18:29:58.611Z,99861.75
2023-03-14T18:32:26.501Z,99862.81
2023-03-14T18:34:58.932Z,99877.44
2023-03-14T18:37:26.849Z,99873.16
2023-03-14T18:40:01.351Z,99881.75
2023-03-14T18:42:31.887Z,99893.88
2023-03-14T18:45:00.049Z,99890.66
2023-03-14T18:47:31.817Z,99894.13
2023-03-14T18:50:01.351Z,99908.16
2023-03-14T18:52:30.110Z,99901.22
2023-03-14T18:54:58.920Z,99906.81
2023-03-14T18:57:26.906Z,99911.97
2023-03-14T18:59:59.679Z,99922.59
2023-03-14T19:02:27.713Z,99926.75
2023-03-14T19:04:55.771Z,99929.66
2023-03-14T19:07:25.036Z,99934.31
2023-03-14T19:09:52.776Z,99931.69
2023-03-14T19:12:20.687Z,99938.41
2023-03-14T19:14:48.460Z,99955.41
2023-03-14T19:17:16.278Z,99953.31
2023-03-14T19:19:44.125Z,99954.38
2023-03-14T19:22:11.910Z,99963.97
2023-03-14T19:24:41.731Z,99968.34
2023-03-14T19:27:09.518Z,99969.09
2023-03-14T19:29:42.097Z,99976.06
2023-03-14T19:32:10.061Z,99986.81
2023-03-14T19:34:37.904Z,99995.06
2023-03-14T19:37:05.698Z,99996.25
2023-03-14T19:39:33.457Z,99988.09
2023-03-14T19:42:02.524Z,99996.53
2023-03-14T19:44:30.343Z,100010.13
2023-03-14T19:46:58.099Z,100002.69
2023-03-14T19:49:26.032Z,100021.38
2023-03-14T19:51:53.830Z,100019.69
2023-03-14T19:54:23.256Z,100017.56
2023-03-14T19:56:51.424Z,100033.16
2023-03-14T19:59:30.736Z,100025.63
2023-03-14T20:02:00.918Z,100043.69
2023-03-14T20:04:28.769Z,100043.66
2023-03-14T20:06:56.632Z,100051.75
2023-03-14T20:09:24.439Z,100053.16
2023-03-14T20:11:54.584Z,100059.53
2023-03-14T20:14:24.352Z,100061.50
2023-03-14T20:16:55.358Z,100070.50
2023-03-14T20:19:23.309Z,100080.34
2023-03-14T20:21:53.766Z,100075.75
2023-03-14T20:24:21.804Z,100086.03
2023-03-14T20:26:49.627Z,100082.06
2023-03-14T20:29:20.461Z,100096.16
2023-03-14T20:31:49.667Z,100087.31
2023-03-14T20:34:17.446Z,100096.09
2023-03-14T20:36:48.741Z,100095.50
2023-03-14T20:39:16.538Z,100092.41
2023-03-14T20:41:44.244Z,100094.81
2023-03-14T20:44:13.453Z,100100.44
2023-03-14T20:46:41.811Z,100107.59
2023-03-14T20:49:11.361Z,100107.38
2023-03-14T20:51:39.053Z,100113.63
2023-03-14T20:54:08.878Z,100122.34
2023-03-14T20:56:36.653Z,100135.78
2023-03-14T20:59:04.984Z,100136.19
2023-03-14T21:01:33.066Z,100144.22
2023-03-14T21:04:00.992Z,100158.06
2023-03-14T21:06:32.529Z,100146.13
2023-03-14T21:09:05.481Z,100152.22
2023-03-14T21:11:36.329Z,100157.69
2023-03-14T21:14:04.528Z,100144.81
2023-03-14T21:16:32.453Z,100141.84
2023-03-14T21:19:01.018Z,100149.78
2023-03-14T21:21:30.898Z,100144.72
2023-03-14T21:23:58.768Z,100146.69
2023-03-14T21:26:26.674Z,100159.00
2023-03-14T21:28:54.517Z,100162.91
2023-03-14T21:31:22.357Z,100162.16
2023-03-14T21:33:50.438Z,100162.75
2023-03-14T21:36:19.437Z,100179.88
2023-03-14T21:38:48.735Z,100174.53
2023-03-14T21:41:16.526Z,100177.72
2023-03-14T21:43:45.730Z,100179.53
2023-03-14T21:46:14.152Z,100189.38
2023-03-14T21:48:41.979Z,100185.59
2023-03-14T21:51:10.622Z,100184.66
2023-03-14T21:53:38.953Z,100187.88
2023-03-14T21:56:08.497Z,100194.19
2023-03-14T21:58:36.501Z,100195.66
2023-03-14T22:01:06.720Z,100195.88
2023-03-14T22:03:35.656Z,100207.91
2023-03-14T22:06:03.900Z,100206.41
2023-03-14T22:08:31.695Z,100207.25
2023-03-14T22:10:59.556Z,100208.22
2023-03-14T22:13:28.722Z,100207.72
2023-03-14T22:15:56.484Z,100208.84
2023-03-14T22:18:25.292Z,100204.00
2023-03-14T22:20:53.145Z,100211.78
2023-03-14T22:23:20.928Z,100204.22
2023-03-14T22:25:50.308Z,100217.50
2023-03-14T22:28:18.783Z,100215.28
2023-03-14T22:30:49.678Z,100211.94
2023-03-14T22:33:18.955Z,100219.50
2023-03-14T22:35:49.029Z,100216.00
2023-03-14T22:38:16.837Z,100217.25
2023-03-14T22:40:44.701Z,100214.38
2023-03-14T22:43:12.516Z,100218.00
2023-03-14T22:45:40.384Z,100223.44
2023-03-14T22:48:09.631Z,100222.16
2023-03-14T22:50:38.990Z,100225.78
2023-03-14T22:53:06.725Z,100219.31
2023-03-14T22:55:34.509Z,100232.63
2023-03-14T22:58:02.708Z,100221.31
2023-03-14T23:00:31.818Z,100235.28
2023-03-14T23:02:59.680Z,100240.38
2023-03-14T23:05:28.843Z,100240.75
2023-03-14T23:07:56.709Z,100245.16
2023-03-14T23:10:24.684Z,100247.16
2023-03-14T23:12:57.356Z,100248.00
2023-03-14T23:15:25.256Z,100240.19
2023-03-14T23:17:53.434Z,100248.03
2023-03-14T23:20:21.328Z,100252.34
2023-03-14T23:22:50.544Z,100255.59
2023-03-14T23:25:19.103Z,100251.47
2023-03-14T23:27:47.329Z,100253.16
2023-03-14T23:30:16.684Z,100246.09
2023-03-14T23:32:44.721Z,100250.31
2023-03-14T23:35:13.602Z,100254.16
2023-03-14T23:37:41.649Z,100252.34
2023-03-14T23:40:12.373Z,100254.94
2023-03-14T23:42:40.328Z,100260.16
2023-03-14T23:45:09.050Z,100258.19
2023-03-14T23:47:36.886Z,100267.34
2023-03-14T23:50:04.887Z,100269.88
2023-03-14T23:52:32.709Z,100272.09
2023-03-14T23:55:00.524Z,100267.00
2023-03-14T23:57:29.796Z,100272.97
2023-03-14T23:59:57.751Z,100270.31
